Manhattan Regional Airport
KMHK : now visible

Airfield :











YOU CAN JOIN US ON...

 
LOGIN :

Register | Disclaimer

   EN    FR    IT 

 









Legend :    VFR   Marginal VFR   IFR   Intensive IFR   Very Intensive IFR
Visi :
Ceiling :
>= 8 km
>= 3000ft
5 to 8 km
1000 to 3000 ft
1500m to 5 km
500 to 1000 ft
800 to 1500m
200 to 500 ft
< 800m
< 200 ft
Symbols :   Thunderstorms  Fog  Heavy snow  Heavy precipitations  Wind > 20 kt






- Airport Elevation : 1057 ft
- IATA code : MHK


KMHK - Manhattan Regional

CURRENT METAR :
  • 241904Z 03008KT 10SM SCT018 BKN023 OVC033 03/M03 A3003 RMK AO2 T00281028

EXPIRED METARs :
  • 241852Z 05007KT 10SM SCT021 OVC033 02/M03 A3003 RMK AO2 SLP177 T00221028
  • 241844Z 03008KT 10SM SCT019 OVC034 03/M02 A3003 RMK AO2 T00281022
  • 241752Z 02007KT 10SM BKN016 OVC022 02/M03 A3006 RMK AO2 SLP188 T00171028 10017 20000 50001
  • 241733Z 02007KT 10SM OVC015 01/M03 A3008 RMK AO2 T00111028
  • 241721Z 03009KT 10SM OVC014 01/M03 A3007 RMK AO2 T00111033
  • 241704Z 01006KT 10SM BKN015 BKN024 OVC030 01/M03 A3008 RMK AO2 T00111033
  • 241652Z 03007KT 10SM SCT015 BKN023 OVC029 01/M03 A3008 RMK AO2 SLP194 T00111028

TAF KMHK
Valid from the 24 at 18:00 until the 25 at 18:00 UTC


241733Z 2418/2518 04007KT P6SM OVC018
FM250000 06008KT P6SM OVC012
FM250600 05009KT 4SM -FZRAPL BR OVC005
FM250900 05013G18KT 3SM FZRASNPL BR OVC005
FM251400 04014G20KT 1/2SM SNRAPL OVC004
KZKC FIR / North America



MET'MAP, your aeronautical weather chart ! - Copyright ORBIFLY December 2007 - Disclaimer

ORBIFLY MET'MAP TEAM :

Programming & Development : Alexandra Zaïnal
Concept & original design : Baudouin d'Aumeries
Assistance for programming : Marc-Olivier Méhu
Technical & hardware support : Manuel Goepfert

Contact : metmap@orbifly.com




SOURCES & CREDITS :

   NOAA       Earth
Advisory